sensor_id;sensor_type;location;lat;lon;timestamp;pressure;altitude;pressure_sealevel;temperature;humidity
55277;BME280;41136;51.478;-2.610;2023-04-08T00:01:31;101433.66;;;12.49;50.60
55277;BME280;41136;51.478;-2.610;2023-04-08T00:03:57;101435.05;;;11.88;51.23
55277;BME280;41136;51.478;-2.610;2023-04-08T00:06:22;101437.53;;;12.12;51.34
55277;BME280;41136;51.478;-2.610;2023-04-08T00:08:48;101435.45;;;11.90;51.67
55277;BME280;41136;51.478;-2.610;2023-04-08T00:11:13;101433.54;;;12.09;52.21
55277;BME280;41136;51.478;-2.610;2023-04-08T00:13:39;101432.05;;;12.01;52.62
55277;BME280;41136;51.478;-2.610;2023-04-08T00:16:04;101429.14;;;12.02;52.90
55277;BME280;41136;51.478;-2.610;2023-04-08T00:18:29;101428.95;;;11.82;53.63
55277;BME280;41136;51.478;-2.610;2023-04-08T00:20:55;101429.61;;;12.12;53.70
55277;BME280;41136;51.478;-2.610;2023-04-08T00:23:20;101429.48;;;11.99;54.30
55277;BME280;41136;51.478;-2.610;2023-04-08T00:25:45;101428.84;;;12.15;54.34
55277;BME280;41136;51.478;-2.610;2023-04-08T00:28:11;101427.61;;;11.80;55.22
55277;BME280;41136;51.478;-2.610;2023-04-08T00:30:36;101427.13;;;11.77;55.41
55277;BME280;41136;51.478;-2.610;2023-04-08T00:33:02;101430.73;;;11.83;55.80
55277;BME280;41136;51.478;-2.610;2023-04-08T00:35:27;101428.34;;;11.70;55.86
55277;BME280;41136;51.478;-2.610;2023-04-08T00:37:52;101428.59;;;11.84;55.62
55277;BME280;41136;51.478;-2.610;2023-04-08T00:40:18;101433.55;;;11.65;55.88
55277;BME280;41136;51.478;-2.610;2023-04-08T00:42:43;101434.04;;;11.28;56.50
55277;BME280;41136;51.478;-2.610;2023-04-08T00:45:10;101433.96;;;10.12;60.97
55277;BME280;41136;51.478;-2.610;2023-04-08T00:47:35;101437.28;;;10.54;61.35
55277;BME280;41136;51.478;-2.610;2023-04-08T00:49:59;101439.03;;;10.48;62.78
55277;BME280;41136;51.478;-2.610;2023-04-08T00:52:24;101437.80;;;10.28;63.17
55277;BME280;41136;51.478;-2.610;2023-04-08T00:54:49;101439.60;;;10.99;61.43
55277;BME280;41136;51.478;-2.610;2023-04-08T00:57:15;101439.27;;;11.10;61.16
55277;BME280;41136;51.478;-2.610;2023-04-08T00:59:41;101442.46;;;11.13;60.21
55277;BME280;41136;51.478;-2.610;2023-04-08T01:02:13;101441.54;;;10.82;61.05
55277;BME280;41136;51.478;-2.610;2023-04-08T01:04:38;101440.67;;;11.25;60.85
55277;BME280;41136;51.478;-2.610;2023-04-08T01:07:00;101444.65;;;10.91;60.83
55277;BME280;41136;51.478;-2.610;2023-04-08T01:09:24;101448.64;;;11.42;59.95
55277;BME280;41136;51.478;-2.610;2023-04-08T01:11:49;101447.93;;;11.70;60.00
55277;BME280;41136;51.478;-2.610;2023-04-08T01:14:19;101447.57;;;11.45;60.44
55277;BME280;41136;51.478;-2.610;2023-04-08T01:16:40;101449.33;;;11.62;60.66
55277;BME280;41136;51.478;-2.610;2023-04-08T01:19:06;101451.43;;;11.24;60.27
55277;BME280;41136;51.478;-2.610;2023-04-08T01:21:29;101452.40;;;11.36;60.08
55277;BME280;41136;51.478;-2.610;2023-04-08T01:24:00;101454.25;;;11.86;59.65
55277;BME280;41136;51.478;-2.610;2023-04-08T01:26:23;101454.96;;;11.24;60.65
55277;BME280;41136;51.478;-2.610;2023-04-08T01:28:48;101455.40;;;11.48;61.76
55277;BME280;41136;51.478;-2.610;2023-04-08T01:31:11;101456.71;;;11.34;62.28
55277;BME280;41136;51.478;-2.610;2023-04-08T01:33:36;101456.91;;;11.15;62.88
55277;BME280;41136;51.478;-2.610;2023-04-08T01:43:18;101458.63;;;11.26;59.34
55277;BME280;41136;51.478;-2.610;2023-04-08T01:45:43;101458.24;;;10.69;60.17
55277;BME280;41136;51.478;-2.610;2023-04-08T01:48:08;101457.69;;;10.88;59.77
55277;BME280;41136;51.478;-2.610;2023-04-08T01:50:33;101458.31;;;11.49;58.94
55277;BME280;41136;51.478;-2.610;2023-04-08T01:53:00;101457.07;;;11.41;59.83
55277;BME280;41136;51.478;-2.610;2023-04-08T01:55:25;101453.43;;;11.57;60.73
55277;BME280;41136;51.478;-2.610;2023-04-08T01:57:52;101450.42;;;11.41;61.05
55277;BME280;41136;51.478;-2.610;2023-04-08T02:00:19;101453.10;;;11.50;61.14
55277;BME280;41136;51.478;-2.610;2023-04-08T02:02:42;101457.49;;;11.52;61.86
55277;BME280;41136;51.478;-2.610;2023-04-08T02:05:06;101458.55;;;11.14;62.41
55277;BME280;41136;51.478;-2.610;2023-04-08T02:07:32;101458.88;;;10.94;63.07
55277;BME280;41136;51.478;-2.610;2023-04-08T02:09:57;101459.97;;;10.54;63.88
55277;BME280;41136;51.478;-2.610;2023-04-08T02:12:23;101461.00;;;10.41;64.44
55277;BME280;41136;51.478;-2.610;2023-04-08T02:14:48;101459.15;;;10.41;64.57
55277;BME280;41136;51.478;-2.610;2023-04-08T02:17:17;101458.60;;;10.34;64.38
55277;BME280;41136;51.478;-2.610;2023-04-08T02:19:45;101463.05;;;10.28;64.63
55277;BME280;41136;51.478;-2.610;2023-04-08T02:22:05;101466.08;;;10.26;64.66
55277;BME280;41136;51.478;-2.610;2023-04-08T02:24:29;101467.98;;;11.11;64.28
55277;BME280;41136;51.478;-2.610;2023-04-08T02:26:55;101468.44;;;10.52;64.43
55277;BME280;41136;51.478;-2.610;2023-04-08T02:29:19;101471.99;;;10.08;65.47
55277;BME280;41136;51.478;-2.610;2023-04-08T02:31:46;101473.26;;;10.13;65.66
55277;BME280;41136;51.478;-2.610;2023-04-08T02:34:10;101474.12;;;10.19;65.95
55277;BME280;41136;51.478;-2.610;2023-04-08T02:36:35;101474.10;;;10.46;65.56
55277;BME280;41136;51.478;-2.610;2023-04-08T02:39:01;101475.26;;;11.09;65.31
55277;BME280;41136;51.478;-2.610;2023-04-08T02:41:27;101476.05;;;10.98;65.30
55277;BME280;41136;51.478;-2.610;2023-04-08T02:43:52;101479.34;;;10.69;66.05
55277;BME280;41136;51.478;-2.610;2023-04-08T02:46:17;101480.93;;;10.37;66.79
55277;BME280;41136;51.478;-2.610;2023-04-08T02:48:43;101484.10;;;10.34;66.91
55277;BME280;41136;51.478;-2.610;2023-04-08T02:51:08;101487.63;;;10.10;67.69
55277;BME280;41136;51.478;-2.610;2023-04-08T02:53:33;101486.59;;;10.36;67.92
55277;BME280;41136;51.478;-2.610;2023-04-08T02:55:59;101491.51;;;10.41;67.33
55277;BME280;41136;51.478;-2.610;2023-04-08T02:58:24;101495.99;;;10.22;68.16
55277;BME280;41136;51.478;-2.610;2023-04-08T03:00:50;101492.37;;;10.13;68.84
55277;BME280;41136;51.478;-2.610;2023-04-08T03:03:15;101492.43;;;9.99;69.12
55277;BME280;41136;51.478;-2.610;2023-04-08T03:05:40;101493.40;;;10.20;68.55
55277;BME280;41136;51.478;-2.610;2023-04-08T03:08:06;101495.52;;;10.27;68.68
55277;BME280;41136;51.478;-2.610;2023-04-08T03:10:31;101496.70;;;9.94;69.46
55277;BME280;41136;51.478;-2.610;2023-04-08T03:12:57;101496.59;;;10.06;69.33
55277;BME280;41136;51.478;-2.610;2023-04-08T03:15:22;101494.12;;;10.50;69.67
55277;BME280;41136;51.478;-2.610;2023-04-08T03:17:47;101498.15;;;9.73;70.98
55277;BME280;41136;51.478;-2.610;2023-04-08T03:24:09;101495.40;;;9.77;68.08
55277;BME280;41136;51.478;-2.610;2023-04-08T03:26:34;101492.69;;;10.00;67.76
55277;BME280;41136;51.478;-2.610;2023-04-08T03:28:59;101493.81;;;9.63;67.88
55277;BME280;41136;51.478;-2.610;2023-04-08T03:31:25;101493.63;;;9.84;67.41
55277;BME280;41136;51.478;-2.610;2023-04-08T03:33:50;101493.30;;;10.77;66.71
55277;BME280;41136;51.478;-2.610;2023-04-08T03:36:15;101496.63;;;10.67;67.44
55277;BME280;41136;51.478;-2.610;2023-04-08T03:38:40;101498.79;;;10.35;68.24
55277;BME280;41136;51.478;-2.610;2023-04-08T03:41:06;101499.01;;;10.50;68.82
55277;BME280;41136;51.478;-2.610;2023-04-08T03:43:31;101499.67;;;10.18;69.63
55277;BME280;41136;51.478;-2.610;2023-04-08T03:45:57;101498.01;;;9.72;70.85
55277;BME280;41136;51.478;-2.610;2023-04-08T03:48:22;101500.47;;;9.43;71.35
55277;BME280;41136;51.478;-2.610;2023-04-08T03:50:48;101499.36;;;9.93;71.28
55277;BME280;41136;51.478;-2.610;2023-04-08T03:53:13;101500.00;;;9.43;71.77
55277;BME280;41136;51.478;-2.610;2023-04-08T03:55:39;101499.21;;;9.55;72.09
55277;BME280;41136;51.478;-2.610;2023-04-08T03:58:05;101498.40;;;9.39;72.02
55277;BME280;41136;51.478;-2.610;2023-04-08T04:00:29;101498.81;;;9.83;72.10
55277;BME280;41136;51.478;-2.610;2023-04-08T04:02:55;101502.33;;;10.19;71.65
55277;BME280;41136;51.478;-2.610;2023-04-08T04:05:20;101506.56;;;10.25;71.92
55277;BME280;41136;51.478;-2.610;2023-04-08T04:07:46;101510.65;;;9.79;72.80
55277;BME280;41136;51.478;-2.610;2023-04-08T04:10:11;101514.30;;;9.53;73.17
55277;BME280;41136;51.478;-2.610;2023-04-08T04:12:36;101517.08;;;9.41;74.34
55277;BME280;41136;51.478;-2.610;2023-04-08T04:15:02;101518.84;;;9.41;74.38
55277;BME280;41136;51.478;-2.610;2023-04-08T04:17:27;101520.82;;;9.39;74.65
55277;BME280;41136;51.478;-2.610;2023-04-08T04:19:52;101525.07;;;9.46;74.79
55277;BME280;41136;51.478;-2.610;2023-04-08T04:22:18;101525.40;;;9.16;74.97
55277;BME280;41136;51.478;-2.610;2023-04-08T04:24:46;101528.79;;;9.41;74.69
55277;BME280;41136;51.478;-2.610;2023-04-08T04:27:08;101531.54;;;9.76;73.81
55277;BME280;41136;51.478;-2.610;2023-04-08T04:29:34;101533.28;;;9.78;73.51
55277;BME280;41136;51.478;-2.610;2023-04-08T04:31:59;101532.85;;;9.45;73.77
55277;BME280;41136;51.478;-2.610;2023-04-08T04:34:25;101538.51;;;9.81;73.29
55277;BME280;41136;51.478;-2.610;2023-04-08T04:36:50;101543.75;;;10.17;73.80
55277;BME280;41136;51.478;-2.610;2023-04-08T04:39:15;101545.56;;;9.59;73.79
55277;BME280;41136;51.478;-2.610;2023-04-08T04:41:41;101544.94;;;9.69;74.50
55277;BME280;41136;51.478;-2.610;2023-04-08T04:44:06;101541.81;;;9.24;74.88
55277;BME280;41136;51.478;-2.610;2023-04-08T04:46:31;101540.47;;;9.63;75.35
55277;BME280;41136;51.478;-2.610;2023-04-08T04:48:56;101541.05;;;9.32;75.07
55277;BME280;41136;51.478;-2.610;2023-04-08T04:51:22;101542.81;;;9.36;75.07
55277;BME280;41136;51.478;-2.610;2023-04-08T04:53:48;101546.94;;;8.93;75.09
55277;BME280;41136;51.478;-2.610;2023-04-08T04:56:13;101549.29;;;9.57;74.88
55277;BME280;41136;51.478;-2.610;2023-04-08T04:58:38;101547.06;;;9.37;74.99
55277;BME280;41136;51.478;-2.610;2023-04-08T05:01:04;101556.66;;;9.51;75.04
55277;BME280;41136;51.478;-2.610;2023-04-08T05:03:30;101554.68;;;8.97;75.25
55277;BME280;41136;51.478;-2.610;2023-04-08T05:05:55;101556.77;;;9.67;75.26
55277;BME280;41136;51.478;-2.610;2023-04-08T05:08:21;101561.39;;;9.63;74.98
55277;BME280;41136;51.478;-2.610;2023-04-08T05:10:46;101558.90;;;9.49;75.53
55277;BME280;41136;51.478;-2.610;2023-04-08T05:13:11;101562.15;;;9.48;75.31
55277;BME280;41136;51.478;-2.610;2023-04-08T05:15:37;101563.69;;;9.29;75.56
55277;BME280;41136;51.478;-2.610;2023-04-08T05:18:03;101565.46;;;8.95;76.61
55277;BME280;41136;51.478;-2.610;2023-04-08T05:20:28;101565.72;;;8.63;76.89
55277;BME280;41136;51.478;-2.610;2023-04-08T05:22:53;101568.23;;;9.34;76.75
55277;BME280;41136;51.478;-2.610;2023-04-08T05:25:19;101571.04;;;9.34;76.64
55277;BME280;41136;51.478;-2.610;2023-04-08T05:27:44;101572.82;;;9.56;75.78
55277;BME280;41136;51.478;-2.610;2023-04-08T05:30:10;101576.41;;;9.49;76.01
55277;BME280;41136;51.478;-2.610;2023-04-08T05:32:35;101580.54;;;9.17;76.29
55277;BME280;41136;51.478;-2.610;2023-04-08T05:35:01;101581.25;;;9.28;77.05
55277;BME280;41136;51.478;-2.610;2023-04-08T05:37:26;101586.56;;;9.21;76.73
55277;BME280;41136;51.478;-2.610;2023-04-08T05:39:51;101589.20;;;8.79;77.75
55277;BME280;41136;51.478;-2.610;2023-04-08T05:42:16;101591.14;;;8.65;78.61
55277;BME280;41136;51.478;-2.610;2023-04-08T05:44:42;101592.54;;;8.71;78.29
55277;BME280;41136;51.478;-2.610;2023-04-08T05:47:07;101592.27;;;8.82;78.25
55277;BME280;41136;51.478;-2.610;2023-04-08T05:49:32;101592.02;;;9.23;77.88
55277;BME280;41136;51.478;-2.610;2023-04-08T05:51:58;101597.66;;;9.08;77.19
55277;BME280;41136;51.478;-2.610;2023-04-08T05:54:24;101594.10;;;9.24;77.45
55277;BME280;41136;51.478;-2.610;2023-04-08T05:56:49;101596.84;;;8.73;78.30
55277;BME280;41136;51.478;-2.610;2023-04-08T05:59:14;101593.85;;;9.01;77.89
55277;BME280;41136;51.478;-2.610;2023-04-08T06:01:40;101600.13;;;8.96;78.04
55277;BME280;41136;51.478;-2.610;2023-04-08T06:04:05;101598.04;;;8.21;79.63
55277;BME280;41136;51.478;-2.610;2023-04-08T06:06:30;101598.75;;;8.18;79.90
55277;BME280;41136;51.478;-2.610;2023-04-08T06:08:56;101602.01;;;9.07;79.33
55277;BME280;41136;51.478;-2.610;2023-04-08T06:11:21;101601.77;;;9.21;79.82
55277;BME280;41136;51.478;-2.610;2023-04-08T06:13:47;101603.60;;;8.90;80.28
55277;BME280;41136;51.478;-2.610;2023-04-08T06:16:14;101604.02;;;9.09;80.00
55277;BME280;41136;51.478;-2.610;2023-04-08T06:18:37;101604.08;;;9.10;79.60
55277;BME280;41136;51.478;-2.610;2023-04-08T06:21:02;101603.11;;;9.52;79.31
55277;BME280;41136;51.478;-2.610;2023-04-08T06:23:28;101604.84;;;9.10;79.12
55277;BME280;41136;51.478;-2.610;2023-04-08T06:25:53;101606.89;;;9.38;79.06
55277;BME280;41136;51.478;-2.610;2023-04-08T06:28:19;101608.73;;;8.89;79.55
55277;BME280;41136;51.478;-2.610;2023-04-08T06:30:44;101613.36;;;9.06;80.63
55277;BME280;41136;51.478;-2.610;2023-04-08T06:33:09;101611.89;;;8.85;80.90
55277;BME280;41136;51.478;-2.610;2023-04-08T06:35:35;101615.58;;;9.38;81.42
55277;BME280;41136;51.478;-2.610;2023-04-08T06:38:00;101616.33;;;9.54;81.01
55277;BME280;41136;51.478;-2.610;2023-04-08T06:40:26;101620.67;;;9.14;81.71
55277;BME280;41136;51.478;-2.610;2023-04-08T06:42:51;101616.29;;;9.35;82.80
55277;BME280;41136;51.478;-2.610;2023-04-08T06:45:16;101617.29;;;9.59;82.04
55277;BME280;41136;51.478;-2.610;2023-04-08T06:47:42;101620.20;;;8.87;83.41
55277;BME280;41136;51.478;-2.610;2023-04-08T06:50:08;101620.61;;;9.55;83.41
55277;BME280;41136;51.478;-2.610;2023-04-08T06:52:33;101622.25;;;9.31;83.47
55277;BME280;41136;51.478;-2.610;2023-04-08T06:54:58;101623.90;;;9.24;84.24
55277;BME280;41136;51.478;-2.610;2023-04-08T06:57:24;101627.56;;;9.58;84.80
55277;BME280;41136;51.478;-2.610;2023-04-08T06:59:49;101629.39;;;9.68;85.29
55277;BME280;41136;51.478;-2.610;2023-04-08T07:02:14;101628.74;;;9.10;85.63
55277;BME280;41136;51.478;-2.610;2023-04-08T07:04:40;101630.31;;;9.83;85.83
55277;BME280;41136;51.478;-2.610;2023-04-08T07:07:05;101635.30;;;9.55;85.78
55277;BME280;41136;51.478;-2.610;2023-04-08T07:09:31;101636.16;;;9.69;86.01
55277;BME280;41136;51.478;-2.610;2023-04-08T07:11:56;101636.58;;;9.93;86.10
55277;BME280;41136;51.478;-2.610;2023-04-08T07:14:22;101640.48;;;9.92;85.56
55277;BME280;41136;51.478;-2.610;2023-04-08T07:16:47;101637.84;;;10.34;84.58
55277;BME280;41136;51.478;-2.610;2023-04-08T07:19:12;101640.05;;;9.97;84.69
55277;BME280;41136;51.478;-2.610;2023-04-08T07:21:38;101645.88;;;10.33;84.32
55277;BME280;41136;51.478;-2.610;2023-04-08T07:24:04;101643.44;;;10.40;83.12
55277;BME280;41136;51.478;-2.610;2023-04-08T07:26:29;101646.40;;;10.68;82.75
55277;BME280;41136;51.478;-2.610;2023-04-08T07:28:55;101646.46;;;10.79;82.06
55277;BME280;41136;51.478;-2.610;2023-04-08T07:31:20;101647.07;;;10.79;81.61
55277;BME280;41136;51.478;-2.610;2023-04-08T07:33:45;101650.79;;;10.86;81.58
55277;BME280;41136;51.478;-2.610;2023-04-08T07:36:11;101656.21;;;10.95;80.44
55277;BME280;41136;51.478;-2.610;2023-04-08T07:38:36;101661.64;;;11.03;79.93
55277;BME280;41136;51.478;-2.610;2023-04-08T07:41:01;101664.74;;;11.17;79.60
55277;BME280;41136;51.478;-2.610;2023-04-08T07:43:26;101668.10;;;11.33;78.82
55277;BME280;41136;51.478;-2.610;2023-04-08T07:45:52;101670.44;;;11.30;77.30
55277;BME280;41136;51.478;-2.610;2023-04-08T07:48:17;101677.00;;;11.25;78.12
55277;BME280;41136;51.478;-2.610;2023-04-08T07:50:43;101677.58;;;11.49;78.30
55277;BME280;41136;51.478;-2.610;2023-04-08T07:53:08;101681.47;;;11.28;78.19
55277;BME280;41136;51.478;-2.610;2023-04-08T07:55:34;101679.97;;;11.51;78.43
55277;BME280;41136;51.478;-2.610;2023-04-08T07:57:59;101682.08;;;11.73;76.98
55277;BME280;41136;51.478;-2.610;2023-04-08T08:00:25;101679.83;;;11.81;76.21
55277;BME280;41136;51.478;-2.610;2023-04-08T08:02:50;101680.33;;;12.04;76.00
55277;BME280;41136;51.478;-2.610;2023-04-08T08:05:20;101682.70;;;12.23;75.97
55277;BME280;41136;51.478;-2.610;2023-04-08T08:07:41;101685.12;;;12.35;74.06
55277;BME280;41136;51.478;-2.610;2023-04-08T08:10:07;101685.07;;;12.46;73.95
55277;BME280;41136;51.478;-2.610;2023-04-08T08:12:31;101686.51;;;12.54;73.49
55277;BME280;41136;51.478;-2.610;2023-04-08T08:14:57;101688.26;;;12.68;74.19
55277;BME280;41136;51.478;-2.610;2023-04-08T08:17:22;101691.68;;;13.03;71.99
55277;BME280;41136;51.478;-2.610;2023-04-08T08:19:47;101696.12;;;12.98;71.29
55277;BME280;41136;51.478;-2.610;2023-04-08T08:22:12;101696.58;;;13.15;70.30
55277;BME280;41136;51.478;-2.610;2023-04-08T08:24:38;101697.96;;;13.05;71.41
55277;BME280;41136;51.478;-2.610;2023-04-08T08:27:03;101699.10;;;13.41;70.50
55277;BME280;41136;51.478;-2.610;2023-04-08T08:29:29;101697.54;;;13.22;70.92
55277;BME280;41136;51.478;-2.610;2023-04-08T08:31:54;101698.18;;;13.45;70.86
55277;BME280;41136;51.478;-2.610;2023-04-08T08:34:20;101692.80;;;13.49;72.34
55277;BME280;41136;51.478;-2.610;2023-04-08T08:36:45;101694.24;;;14.02;71.74
55277;BME280;41136;51.478;-2.610;2023-04-08T08:39:11;101694.66;;;14.18;71.25
55277;BME280;41136;51.478;-2.610;2023-04-08T08:41:36;101694.29;;;14.03;70.09
55277;BME280;41136;51.478;-2.610;2023-04-08T08:44:04;101691.79;;;14.88;69.35
55277;BME280;41136;51.478;-2.610;2023-04-08T08:46:27;101688.84;;;13.71;69.46
55277;BME280;41136;51.478;-2.610;2023-04-08T08:48:52;101688.28;;;14.84;69.81
55277;BME280;41136;51.478;-2.610;2023-04-08T08:51:17;101694.05;;;14.74;70.32
55277;BME280;41136;51.478;-2.610;2023-04-08T08:53:42;101690.79;;;14.78;68.52
55277;BME280;41136;51.478;-2.610;2023-04-08T08:56:08;101692.59;;;15.41;67.28
55277;BME280;41136;51.478;-2.610;2023-04-08T08:58:33;101695.92;;;15.16;68.19
55277;BME280;41136;51.478;-2.610;2023-04-08T09:00:59;101695.03;;;15.55;64.95
55277;BME280;41136;51.478;-2.610;2023-04-08T09:03:25;101697.71;;;15.66;66.77
55277;BME280;41136;51.478;-2.610;2023-04-08T09:05:51;101694.44;;;15.54;64.84
55277;BME280;41136;51.478;-2.610;2023-04-08T09:08:22;101701.78;;;16.15;63.95
55277;BME280;41136;51.478;-2.610;2023-04-08T09:10:40;101698.43;;;15.25;64.28
55277;BME280;41136;51.478;-2.610;2023-04-08T09:13:05;101701.02;;;15.56;64.31
55277;BME280;41136;51.478;-2.610;2023-04-08T09:15:30;101701.98;;;15.99;65.37
55277;BME280;41136;51.478;-2.610;2023-04-08T09:17:55;101699.55;;;15.78;62.88
55277;BME280;41136;51.478;-2.610;2023-04-08T09:20:20;101696.89;;;15.91;63.74
55277;BME280;41136;51.478;-2.610;2023-04-08T09:22:54;101697.63;;;16.51;61.44
55277;BME280;41136;51.478;-2.610;2023-04-08T09:27:36;101701.03;;;16.93;60.58
55277;BME280;41136;51.478;-2.610;2023-04-08T09:34:53;101711.08;;;16.47;57.81
55277;BME280;41136;51.478;-2.610;2023-04-08T09:37:19;101710.63;;;17.19;58.70
55277;BME280;41136;51.478;-2.610;2023-04-08T09:39:44;101711.57;;;17.20;57.67
55277;BME280;41136;51.478;-2.610;2023-04-08T09:42:11;101713.81;;;16.95;58.04
55277;BME280;41136;51.478;-2.610;2023-04-08T09:44:35;101710.50;;;16.35;57.20
55277;BME280;41136;51.478;-2.610;2023-04-08T09:47:07;101712.32;;;16.89;57.68
55277;BME280;41136;51.478;-2.610;2023-04-08T09:49:27;101712.43;;;16.94;57.05
55277;BME280;41136;51.478;-2.610;2023-04-08T09:51:56;101709.60;;;17.38;57.03
55277;BME280;41136;51.478;-2.610;2023-04-08T09:54:20;101710.01;;;17.32;54.89
55277;BME280;41136;51.478;-2.610;2023-04-08T09:56:47;101704.62;;;17.79;54.12
55277;BME280;41136;51.478;-2.610;2023-04-08T09:59:12;101705.99;;;16.23;54.26
55277;BME280;41136;51.478;-2.610;2023-04-08T10:01:39;101705.85;;;15.78;55.45
55277;BME280;41136;51.478;-2.610;2023-04-08T10:04:00;101706.98;;;17.36;56.82
55277;BME280;41136;51.478;-2.610;2023-04-08T10:06:28;101704.10;;;17.26;54.83
55277;BME280;41136;51.478;-2.610;2023-04-08T10:08:49;101704.21;;;17.14;53.90
55277;BME280;41136;51.478;-2.610;2023-04-08T10:11:15;101699.90;;;17.24;53.85
55277;BME280;41136;51.478;-2.610;2023-04-08T10:13:40;101702.16;;;17.43;54.17
55277;BME280;41136;51.478;-2.610;2023-04-08T10:16:17;101703.61;;;17.37;54.92
55277;BME280;41136;51.478;-2.610;2023-04-08T10:18:31;101700.43;;;17.75;53.50
55277;BME280;41136;51.478;-2.610;2023-04-08T10:20:56;101695.40;;;17.68;53.35
55277;BME280;41136;51.478;-2.610;2023-04-08T10:25:48;101697.81;;;17.09;51.95
55277;BME280;41136;51.478;-2.610;2023-04-08T10:30:39;101687.98;;;17.85;52.72
55277;BME280;41136;51.478;-2.610;2023-04-08T10:33:09;101695.01;;;16.17;51.99
55277;BME280;41136;51.478;-2.610;2023-04-08T10:35:29;101694.20;;;17.32;53.22
55277;BME280;41136;51.478;-2.610;2023-04-08T10:37:54;101695.02;;;17.49;51.21
55277;BME280;41136;51.478;-2.610;2023-04-08T10:40:19;101696.55;;;17.40;51.02
55277;BME280;41136;51.478;-2.610;2023-04-08T10:42:45;101695.75;;;17.49;52.15
55277;BME280;41136;51.478;-2.610;2023-04-08T10:45:15;101693.05;;;16.96;52.21
55277;BME280;41136;51.478;-2.610;2023-04-08T10:47:37;101691.47;;;17.65;52.40
55277;BME280;41136;51.478;-2.610;2023-04-08T10:52:27;101685.41;;;17.71;52.49
55277;BME280;41136;51.478;-2.610;2023-04-08T10:54:53;101686.60;;;17.08;52.72
55277;BME280;41136;51.478;-2.610;2023-04-08T10:57:23;101684.26;;;16.93;51.89
55277;BME280;41136;51.478;-2.610;2023-04-08T10:59:43;101679.48;;;18.14;51.18
55277;BME280;41136;51.478;-2.610;2023-04-08T11:02:12;101680.98;;;18.14;50.60
55277;BME280;41136;51.478;-2.610;2023-04-08T11:04:40;101677.40;;;18.05;48.63
55277;BME280;41136;51.478;-2.610;2023-04-08T11:06:59;101679.79;;;17.67;49.54
55277;BME280;41136;51.478;-2.610;2023-04-08T11:09:25;101685.73;;;17.35;48.58
55277;BME280;41136;51.478;-2.610;2023-04-08T11:11:51;101681.38;;;17.69;49.71
55277;BME280;41136;51.478;-2.610;2023-04-08T11:14:16;101678.84;;;17.42;48.78
55277;BME280;41136;51.478;-2.610;2023-04-08T11:16:40;101677.20;;;16.93;49.64
55277;BME280;41136;51.478;-2.610;2023-04-08T11:19:06;101676.95;;;17.05;49.49
55277;BME280;41136;51.478;-2.610;2023-04-08T11:21:34;101677.51;;;17.53;49.53
55277;BME280;41136;51.478;-2.610;2023-04-08T11:23:57;101676.36;;;17.72;49.78
55277;BME280;41136;51.478;-2.610;2023-04-08T11:26:22;101674.16;;;17.88;50.07
55277;BME280;41136;51.478;-2.610;2023-04-08T11:28:47;101677.41;;;17.49;49.61
55277;BME280;41136;51.478;-2.610;2023-04-08T11:31:13;101677.59;;;17.26;50.01
55277;BME280;41136;51.478;-2.610;2023-04-08T11:33:44;101677.01;;;15.78;50.89
55277;BME280;41136;51.478;-2.610;2023-04-08T11:36:03;101681.52;;;16.72;49.84
55277;BME280;41136;51.478;-2.610;2023-04-08T11:38:29;101683.73;;;16.61;50.69
55277;BME280;41136;51.478;-2.610;2023-04-08T11:40:55;101683.07;;;16.71;51.85
55277;BME280;41136;51.478;-2.610;2023-04-08T11:43:20;101682.70;;;16.85;51.99
55277;BME280;41136;51.478;-2.610;2023-04-08T11:45:45;101681.96;;;15.71;53.28
55277;BME280;41136;51.478;-2.610;2023-04-08T11:48:11;101677.60;;;16.61;53.29
55277;BME280;41136;51.478;-2.610;2023-04-08T11:50:36;101673.82;;;17.08;51.94
55277;BME280;41136;51.478;-2.610;2023-04-08T11:53:01;101672.86;;;16.92;49.45
55277;BME280;41136;51.478;-2.610;2023-04-08T11:55:28;101666.65;;;16.63;47.55
55277;BME280;41136;51.478;-2.610;2023-04-08T11:57:53;101662.43;;;16.99;47.96
55277;BME280;41136;51.478;-2.610;2023-04-08T12:00:17;101663.85;;;16.93;45.33
55277;BME280;41136;51.478;-2.610;2023-04-08T12:02:42;101665.77;;;17.22;46.04
55277;BME280;41136;51.478;-2.610;2023-04-08T12:05:08;101669.14;;;16.67;44.40
55277;BME280;41136;51.478;-2.610;2023-04-08T12:07:34;101667.79;;;16.63;44.82
55277;BME280;41136;51.478;-2.610;2023-04-08T12:09:59;101665.72;;;16.96;43.79
55277;BME280;41136;51.478;-2.610;2023-04-08T12:12:25;101662.85;;;16.71;44.60
55277;BME280;41136;51.478;-2.610;2023-04-08T12:14:50;101664.16;;;17.28;44.35
55277;BME280;41136;51.478;-2.610;2023-04-08T12:17:16;101666.26;;;17.23;44.33
55277;BME280;41136;51.478;-2.610;2023-04-08T12:19:41;101661.83;;;17.14;43.52
55277;BME280;41136;51.478;-2.610;2023-04-08T12:22:07;101664.57;;;16.55;43.44
55277;BME280;41136;51.478;-2.610;2023-04-08T12:24:32;101663.01;;;16.76;44.05
55277;BME280;41136;51.478;-2.610;2023-04-08T12:26:57;101658.39;;;17.10;43.46
55277;BME280;41136;51.478;-2.610;2023-04-08T12:29:22;101657.01;;;17.39;42.69
55277;BME280;41136;51.478;-2.610;2023-04-08T12:31:48;101654.91;;;17.85;41.35
55277;BME280;41136;51.478;-2.610;2023-04-08T12:34:13;101652.60;;;17.79;40.24
55277;BME280;41136;51.478;-2.610;2023-04-08T12:36:39;101653.22;;;16.93;40.93
55277;BME280;41136;51.478;-2.610;2023-04-08T12:39:04;101650.73;;;17.80;41.14
55277;BME280;41136;51.478;-2.610;2023-04-08T12:41:30;101654.41;;;17.11;42.26
55277;BME280;41136;51.478;-2.610;2023-04-08T12:43:56;101652.40;;;17.53;41.68
55277;BME280;41136;51.478;-2.610;2023-04-08T12:46:21;101653.43;;;17.61;42.21
55277;BME280;41136;51.478;-2.610;2023-04-08T12:48:47;101649.05;;;17.50;42.46
55277;BME280;41136;51.478;-2.610;2023-04-08T12:51:12;101650.64;;;16.97;41.40
55277;BME280;41136;51.478;-2.610;2023-04-08T12:53:37;101648.37;;;16.64;41.95
55277;BME280;41136;51.478;-2.610;2023-04-08T12:56:03;101645.96;;;17.80;41.42
55277;BME280;41136;51.478;-2.610;2023-04-08T12:58:28;101642.57;;;17.47;41.80